Cse Prosperity Expr. — 3EES5 — position and weather

sailwx.info

Track history (hours):
 
Tides and Currents Weather Stations Pressure Air Temp Water Temp Dewpoint Dewpoint Depression Visibility Wind Speed Wind Dir Waves Ship Positions

Cse Prosperity Expr.

Last reported at 2014-Oct-23 07:29 UTC. Time now 2014-Oct-23 07:59 UTC.
Position N 34°14' E 135°07'.

Length 168 m; draft 5.6 m.

Type: Cargo ship. MMSI: 371801000.

Date/timePositionNaut miles runAvg speedWind from/ knotsBaromVisibWave heightAir tempDewpointWater temp
2014-Oct-23 07:29N 34°14' E 135°07'0 0.0
2014-Oct-23 06:32N 34°14' E 135°07'0 0.0
2014-Oct-23 05:32N 34°14' E 135°07'0 0.0
2014-Oct-23 04:32N 34°14' E 135°07'0 0.0
2014-Oct-23 03:29N 34°14' E 135°07'0 0.0
2014-Oct-23 02:32N 34°14' E 135°07'0 0.0
2014-Oct-23 01:32N 34°14' E 135°07'0 0.0
2014-Oct-23 00:32N 34°14' E 135°07'0 0.0
2014-Oct-22 23:32N 34°14' E 135°07'0 0.0
2014-Oct-22 22:32N 34°14' E 135°07'2 1.9
2014-Oct-22 21:31N 34°13' E 135°06'0 0.0
2014-Oct-22 20:31N 34°13' E 135°06'0 0.0
2014-Oct-22 19:31N 34°13' E 135°06'0 0.0
2014-Oct-22 18:31N 34°13' E 135°06'0 0.0
2014-Oct-22 17:31N 34°13' E 135°06'0 0.1
2014-Oct-22 16:31N 34°13' E 135°06'0 0.0
2014-Oct-22 15:31N 34°13' E 135°06'0 0.0
2014-Oct-22 14:31N 34°13' E 135°06'0 0.0
2014-Oct-22 13:31N 34°13' E 135°06'0 0.0
2014-Oct-22 12:31N 34°13' E 135°06'0 0.1
2014-Oct-22 11:31N 34°13' E 135°06'2 2.3
2014-Oct-22 10:33N 34°11' E 135°04'1211.9
2014-Oct-22 09:33N 34°00' E 134°58'  
2014-Oct-19 03:29N 22°42' E 120°09'10 0.8
2014-Oct-18 14:31N 22°36' E 120°18'0 0.0
2014-Oct-18 09:31N 22°36' E 120°18'0 0.0
2014-Oct-18 08:31N 22°36' E 120°18'0 0.0
2014-Oct-18 07:31N 22°36' E 120°18'1 0.2
2014-Oct-18 02:33N 22°37' E 120°17'7 6.6
2014-Oct-18 01:33N 22°39' E 120°10'1111.0
2014-Oct-18 00:33N 22°48' E 120°03'  
2014-Oct-14 07:30N 33°57' E 134°54'1313.4
2014-Oct-14 06:32N 34°10' E 134°57'1111.1
2014-Oct-14 05:33N 34°21' E 134°60'6 6.1
2014-Oct-14 04:30N 34°22' E 135°08'0 0.1
2014-Oct-14 03:30N 34°21' E 135°08'0 0.1
2014-Oct-14 02:30N 34°21' E 135°08'0 0.1
2014-Oct-14 01:30N 34°21' E 135°08'0 0.0
2014-Oct-14 00:30N 34°21' E 135°08'0 0.1
2014-Oct-13 23:30N 34°21' E 135°08'0 0.0
2014-Oct-13 22:30N 34°21' E 135°07'0 0.0
2014-Oct-13 21:30N 34°21' E 135°07'0 0.0
2014-Oct-13 20:30N 34°21' E 135°07'0 0.0
2014-Oct-13 19:24N 34°21' E 135°07'0 0.0
2014-Oct-13 18:30N 34°21' E 135°07'0 0.0
2014-Oct-13 17:24N 34°21' E 135°08'0 0.0
2014-Oct-13 16:30N 34°21' E 135°08'0 0.0
2014-Oct-13 15:18N 34°21' E 135°08'0 0.0
2014-Oct-13 14:30N 34°21' E 135°08'0 0.0
2014-Oct-13 13:30N 34°21' E 135°08'0 0.0
2014-Oct-13 12:30N 34°21' E 135°08'0 0.1
2014-Oct-13 10:30N 34°22' E 135°07'0 0.1
2014-Oct-13 09:30N 34°22' E 135°07'0 0.1
2014-Oct-13 08:30N 34°22' E 135°08'0 0.0
2014-Oct-13 07:30N 34°22' E 135°08'  
Track history (hours):
 
Tides and Currents Weather Stations Pressure Air Temp Water Temp Dewpoint Dewpoint Depression Visibility Wind Speed Wind Dir Waves Ship Positions

Cse Prosperity Expr.

Last reported at 2014-Oct-23 07:29 UTC. Time now 2014-Oct-23 07:59 UTC.
Position N 34°14' E 135°07'.

Length 168 m; draft 5.6 m.

Type: Cargo ship. MMSI: 371801000.

Date/timePositionNaut miles runAvg speedWind from/ knotsBaromVisibWave heightAir tempDewpointWater temp
2014-Oct-23 07:29N 34°14' E 135°07'0 0.0
2014-Oct-23 06:32N 34°14' E 135°07'0 0.0
2014-Oct-23 05:32N 34°14' E 135°07'0 0.0
2014-Oct-23 04:32N 34°14' E 135°07'0 0.0
2014-Oct-23 03:29N 34°14' E 135°07'0 0.0
2014-Oct-23 02:32N 34°14' E 135°07'0 0.0
2014-Oct-23 01:32N 34°14' E 135°07'0 0.0
2014-Oct-23 00:32N 34°14' E 135°07'0 0.0
2014-Oct-22 23:32N 34°14' E 135°07'0 0.0
2014-Oct-22 22:32N 34°14' E 135°07'2 1.9
2014-Oct-22 21:31N 34°13' E 135°06'0 0.0
2014-Oct-22 20:31N 34°13' E 135°06'0 0.0
2014-Oct-22 19:31N 34°13' E 135°06'0 0.0
2014-Oct-22 18:31N 34°13' E 135°06'0 0.0
2014-Oct-22 17:31N 34°13' E 135°06'0 0.1
2014-Oct-22 16:31N 34°13' E 135°06'0 0.0
2014-Oct-22 15:31N 34°13' E 135°06'0 0.0
2014-Oct-22 14:31N 34°13' E 135°06'0 0.0
2014-Oct-22 13:31N 34°13' E 135°06'0 0.0
2014-Oct-22 12:31N 34°13' E 135°06'0 0.1
2014-Oct-22 11:31N 34°13' E 135°06'2 2.3
2014-Oct-22 10:33N 34°11' E 135°04'1211.9
2014-Oct-22 09:33N 34°00' E 134°58'  
2014-Oct-19 03:29N 22°42' E 120°09'10 0.8
2014-Oct-18 14:31N 22°36' E 120°18'0 0.0
2014-Oct-18 09:31N 22°36' E 120°18'0 0.0
2014-Oct-18 08:31N 22°36' E 120°18'0 0.0
2014-Oct-18 07:31N 22°36' E 120°18'1 0.2
2014-Oct-18 02:33N 22°37' E 120°17'7 6.6
2014-Oct-18 01:33N 22°39' E 120°10'1111.0
2014-Oct-18 00:33N 22°48' E 120°03'  
2014-Oct-14 07:30N 33°57' E 134°54'1313.4
2014-Oct-14 06:32N 34°10' E 134°57'1111.1
2014-Oct-14 05:33N 34°21' E 134°60'6 6.1
2014-Oct-14 04:30N 34°22' E 135°08'0 0.1
2014-Oct-14 03:30N 34°21' E 135°08'0 0.1
2014-Oct-14 02:30N 34°21' E 135°08'0 0.1
2014-Oct-14 01:30N 34°21' E 135°08'0 0.0
2014-Oct-14 00:30N 34°21' E 135°08'0 0.1
2014-Oct-13 23:30N 34°21' E 135°08'0 0.0
2014-Oct-13 22:30N 34°21' E 135°07'0 0.0
2014-Oct-13 21:30N 34°21' E 135°07'0 0.0
2014-Oct-13 20:30N 34°21' E 135°07'0 0.0
2014-Oct-13 19:24N 34°21' E 135°07'0 0.0
2014-Oct-13 18:30N 34°21' E 135°07'0 0.0
2014-Oct-13 17:24N 34°21' E 135°08'0 0.0
2014-Oct-13 16:30N 34°21' E 135°08'0 0.0
2014-Oct-13 15:18N 34°21' E 135°08'0 0.0
2014-Oct-13 14:30N 34°21' E 135°08'0 0.0
2014-Oct-13 13:30N 34°21' E 135°08'0 0.0
2014-Oct-13 12:30N 34°21' E 135°08'0 0.1
2014-Oct-13 10:30N 34°22' E 135°07'0 0.1
2014-Oct-13 09:30N 34°22' E 135°07'0 0.1
2014-Oct-13 08:30N 34°22' E 135°08'0 0.0
2014-Oct-13 07:30N 34°22' E 135°08'  

Dump ship's entire track history